Terminal Aerodrome Forecast
Issued by NWS Shreveport, LA

Home | Current Version | Previous Version | Text Only | Print | Product List | Glossary On
Versions: 1 2 3 4 5 6 7 8 9 10 11 12 13 14 15 16 17 18
000
FTUS44 KSHV 222300 RRA
TAFTYR
TAF
KTYR 222347Z 2300/2324 28004KT P6SM SCT160 OVC250
     FM230400 34003KT P6SM BKN110 OVC250
     FM230900 03005KT P6SM VCSH OVC090
      TEMPO 2309/2312 -RA OVC045
     FM231200 01009KT 6SM -RA BR OVC035
     FM231500 36011KT 6SM -RA BR BKN020
     FM231800 36011KT 4SM -SHRA BR OVC015=

USA.gov is the U.S. government's official web portal to all federal, state and local government web resources and services.